createdAt,value
2022-08-22T00:00:28.049Z,-147.88
2022-08-22T00:02:56.788Z,-147.88
2022-08-22T00:05:57.808Z,-147.88
2022-08-22T00:08:32.799Z,-147.88
2022-08-22T00:11:06.579Z,-147.88
2022-08-22T00:13:40.937Z,-147.88
2022-08-22T00:16:13.642Z,-147.88
2022-08-22T00:18:46.109Z,-147.88
2022-08-22T00:21:17.972Z,-147.88
2022-08-22T00:23:50.080Z,-147.88
2022-08-22T00:26:27.737Z,-147.88
2022-08-22T00:29:03.040Z,-147.88
2022-08-22T00:31:35.776Z,-147.88
2022-08-22T00:34:07.088Z,-147.88
2022-08-22T00:36:39.580Z,-147.88
2022-08-22T00:39:14.214Z,-147.88
2022-08-22T00:46:44.185Z,15.79
2022-08-22T00:49:34.045Z,15.65
2022-08-22T00:52:31.870Z,15.65
2022-08-22T00:55:20.675Z,15.63
2022-08-22T00:58:03.480Z,15.58
2022-08-22T01:00:36.571Z,15.52
2022-08-22T01:03:44.859Z,15.34
2022-08-22T01:06:23.619Z,15.37
2022-08-22T01:09:03.128Z,15.37
2022-08-22T01:12:02.433Z,15.39
2022-08-22T01:14:40.028Z,15.41
2022-08-22T01:17:41.678Z,15.27
2022-08-22T01:20:43.052Z,15.30
2022-08-22T01:23:56.374Z,15.21
2022-08-22T01:27:01.970Z,15.22
2022-08-22T01:29:57.238Z,15.20
2022-08-22T01:32:56.901Z,15.23
2022-08-22T01:35:55.810Z,15.21
2022-08-22T01:38:59.040Z,15.15
2022-08-22T01:41:56.308Z,15.12
2022-08-22T01:44:48.145Z,15.16
2022-08-22T01:47:19.728Z,15.20
2022-08-22T01:49:51.949Z,15.18
2022-08-22T01:52:40.448Z,15.23
2022-08-22T01:55:11.590Z,15.20
2022-08-22T01:57:50.957Z,15.21
2022-08-22T02:00:20.245Z,15.18
2022-08-22T02:03:17.819Z,15.17
2022-08-22T02:05:51.699Z,15.14
2022-08-22T02:08:27.647Z,15.14
2022-08-22T02:11:02.927Z,15.16
2022-08-22T02:13:46.442Z,15.15
2022-08-22T02:16:20.250Z,15.07
2022-08-22T02:18:53.927Z,15.05
2022-08-22T02:21:28.728Z,15.08
2022-08-22T02:24:01.865Z,15.06
2022-08-22T02:26:45.601Z,15.00
2022-08-22T02:29:16.997Z,14.96
2022-08-22T02:31:48.961Z,14.95
2022-08-22T02:34:26.034Z,14.95
2022-08-22T02:36:58.851Z,14.98
2022-08-22T02:39:36.911Z,14.93
2022-08-22T02:42:17.587Z,14.82
2022-08-22T02:45:16.133Z,14.77
2022-08-22T02:47:56.915Z,14.74
2022-08-22T02:50:31.134Z,14.69
2022-08-22T02:53:05.580Z,14.71
2022-08-22T02:55:52.401Z,14.67
2022-08-22T02:58:29.262Z,14.64
2022-08-22T03:01:20.989Z,14.57
2022-08-22T03:03:48.982Z,14.56
2022-08-22T03:06:38.482Z,14.44
2022-08-22T03:09:24.007Z,14.38
2022-08-22T03:12:02.095Z,14.31
2022-08-22T03:14:35.679Z,14.26
2022-08-22T03:17:10.884Z,14.30
2022-08-22T03:19:55.956Z,14.20
2022-08-22T03:22:29.986Z,14.23
2022-08-22T03:25:05.277Z,14.18
2022-08-22T03:27:41.881Z,14.12
2022-08-22T03:30:13.796Z,14.11
2022-08-22T03:32:51.804Z,14.10
2022-08-22T03:35:51.446Z,14.06
2022-08-22T03:38:22.817Z,14.07
2022-08-22T03:41:22.760Z,14.03
2022-08-22T03:44:20.446Z,14.05
2022-08-22T03:47:13.245Z,14.00
2022-08-22T03:50:03.900Z,13.94
2022-08-22T03:53:18.444Z,13.85
2022-08-22T03:56:23.049Z,13.76
2022-08-22T03:59:26.022Z,13.76
2022-08-22T04:02:24.983Z,13.68
2022-08-22T04:05:42.699Z,13.58
2022-08-22T04:08:33.745Z,13.61
2022-08-22T04:11:34.630Z,13.53
2022-08-22T04:14:41.479Z,13.49
2022-08-22T04:17:55.807Z,13.49
2022-08-22T04:20:55.032Z,13.48
2022-08-22T04:23:42.205Z,13.49
2022-08-22T04:26:15.788Z,13.46
2022-08-22T04:28:49.146Z,13.47
2022-08-22T04:31:23.753Z,13.47
2022-08-22T04:33:57.507Z,13.44
2022-08-22T04:36:28.032Z,13.42
2022-08-22T04:39:00.177Z,13.49
2022-08-22T04:41:49.059Z,13.49
2022-08-22T04:44:22.740Z,13.48
2022-08-22T04:46:58.554Z,13.49
2022-08-22T04:49:34.151Z,13.49
2022-08-22T04:52:10.599Z,13.50
2022-08-22T04:54:48.912Z,13.58
2022-08-22T04:57:26.540Z,13.57
2022-08-22T04:59:59.143Z,13.61
2022-08-22T05:02:27.997Z,13.65
2022-08-22T05:05:01.981Z,13.75
2022-08-22T05:07:36.133Z,13.76
2022-08-22T05:10:11.752Z,13.83
2022-08-22T05:12:44.834Z,13.91
2022-08-22T05:15:18.978Z,13.98
2022-08-22T05:17:55.129Z,14.08
2022-08-22T05:20:26.225Z,14.15
2022-08-22T05:22:57.474Z,14.24
2022-08-22T05:25:28.922Z,-147.88
2022-08-22T05:28:12.049Z,-147.88
2022-08-22T05:30:40.121Z,-147.88
2022-08-22T05:33:19.469Z,-147.88
2022-08-22T05:35:57.197Z,15.34
2022-08-22T05:38:30.551Z,14.69
2022-08-22T05:41:05.783Z,14.78
2022-08-22T05:43:36.414Z,14.93
2022-08-22T05:46:09.840Z,15.05
2022-08-22T05:48:43.542Z,15.13
2022-08-22T05:51:16.849Z,15.17
2022-08-22T05:53:49.224Z,15.24
2022-08-22T05:56:26.581Z,15.32
2022-08-22T05:58:57.785Z,15.31
2022-08-22T06:01:31.475Z,15.34
2022-08-22T06:04:07.281Z,15.46
2022-08-22T06:06:40.190Z,15.63
2022-08-22T06:09:12.999Z,15.75
2022-08-22T06:11:51.949Z,15.77
2022-08-22T06:14:28.871Z,16.02
2022-08-22T06:17:01.501Z,16.28
2022-08-22T06:19:32.138Z,16.48
2022-08-22T06:22:00.650Z,16.74
2022-08-22T06:24:28.748Z,16.83
2022-08-22T06:27:03.531Z,16.94
2022-08-22T06:29:35.421Z,16.96
2022-08-22T06:32:08.541Z,17.26
2022-08-22T06:34:43.079Z,17.38
2022-08-22T06:37:17.051Z,17.50
2022-08-22T06:39:49.615Z,17.63
2022-08-22T06:42:20.178Z,17.83
2022-08-22T06:44:53.762Z,17.81
2022-08-22T06:47:25.083Z,17.75
2022-08-22T06:49:57.856Z,17.58
2022-08-22T06:52:28.743Z,17.47
2022-08-22T06:55:00.575Z,17.85
2022-08-22T06:57:33.200Z,17.87
2022-08-22T07:00:03.861Z,17.77
2022-08-22T07:02:37.079Z,17.88
2022-08-22T07:05:09.964Z,18.12
2022-08-22T07:07:38.079Z,18.31
2022-08-22T07:10:06.264Z,18.28
2022-08-22T07:12:38.694Z,18.23
2022-08-22T07:15:14.125Z,18.09
2022-08-22T07:17:49.979Z,18.10
2022-08-22T07:20:24.706Z,18.36
2022-08-22T07:22:55.318Z,-147.88
2022-08-22T07:25:24.767Z,-147.88
2022-08-22T07:28:07.951Z,-147.88
2022-08-22T07:30:53.604Z,-147.88
2022-08-22T07:33:39.167Z,-147.88
2022-08-22T07:36:23.139Z,19.52
2022-08-22T07:39:03.366Z,19.52
2022-08-22T07:41:43.618Z,19.92
2022-08-22T07:44:19.475Z,19.83
2022-08-22T07:46:57.154Z,20.03
2022-08-22T07:49:29.500Z,20.13
2022-08-22T07:52:14.611Z,20.56
2022-08-22T07:54:47.429Z,21.06
2022-08-22T07:57:21.226Z,-147.88
2022-08-22T07:59:52.575Z,-147.88
2022-08-22T08:02:21.119Z,-147.88
2022-08-22T08:04:51.530Z,-147.88
2022-08-22T08:07:23.292Z,-147.88
2022-08-22T08:09:54.517Z,-147.88
2022-08-22T08:12:30.065Z,-147.88
2022-08-22T08:14:58.228Z,-147.88
2022-08-22T08:17:32.055Z,-147.88
2022-08-22T08:20:03.322Z,-147.88
2022-08-22T08:22:33.316Z,-147.88
2022-08-22T08:25:01.642Z,-147.88
2022-08-22T08:27:53.345Z,-147.88
2022-08-22T08:30:24.663Z,-147.88
2022-08-22T08:33:12.095Z,-147.88
2022-08-22T08:36:02.287Z,-147.88
2022-08-22T08:38:39.834Z,-147.88
2022-08-22T08:41:46.514Z,-147.88
2022-08-22T08:44:27.583Z,21.06
2022-08-22T08:47:26.179Z,24.74
2022-08-22T08:50:18.512Z,24.71
2022-08-22T08:53:18.249Z,24.92
2022-08-22T08:55:54.980Z,24.84
2022-08-22T08:58:39.860Z,24.75
2022-08-22T09:01:38.267Z,24.76
2022-08-22T09:04:30.325Z,24.85
2022-08-22T09:07:31.587Z,25.02
2022-08-22T09:10:14.996Z,24.87
2022-08-22T09:13:12.447Z,25.04
2022-08-22T09:16:13.539Z,25.01
2022-08-22T09:19:23.591Z,24.98
2022-08-22T09:22:55.500Z,25.17
2022-08-22T09:25:29.666Z,25.04
2022-08-22T09:28:14.582Z,25.34
2022-08-22T09:31:16.505Z,25.38
2022-08-22T09:33:52.724Z,25.48
2022-08-22T09:36:26.249Z,25.65
2022-08-22T09:38:59.170Z,25.65
2022-08-22T09:41:39.775Z,26.27
2022-08-22T09:44:17.399Z,26.15
2022-08-22T09:47:02.677Z,26.26
2022-08-22T09:49:45.686Z,26.30
2022-08-22T09:52:33.185Z,26.40
2022-08-22T09:55:16.912Z,26.50
2022-08-22T09:57:52.813Z,-147.88
2022-08-22T10:00:26.699Z,-147.88
2022-08-22T10:03:03.166Z,-147.88
2022-08-22T10:05:44.372Z,-147.88
2022-08-22T10:08:29.382Z,-147.88
2022-08-22T10:11:26.842Z,-147.88
2022-08-22T10:14:03.341Z,-147.88
2022-08-22T10:16:58.052Z,-147.88
2022-08-22T10:19:33.351Z,-147.88
2022-08-22T10:22:19.939Z,-147.88
2022-08-22T10:24:59.364Z,-147.88
2022-08-22T10:27:45.576Z,-147.88
2022-08-22T10:30:20.243Z,-147.88
2022-08-22T10:33:00.007Z,-147.88
2022-08-22T10:35:33.986Z,-147.88
2022-08-22T10:38:12.511Z,-147.88
2022-08-22T10:40:49.579Z,-147.88
2022-08-22T10:43:28.743Z,-147.88
2022-08-22T10:46:06.730Z,-147.88
2022-08-22T10:48:53.645Z,-147.88
2022-08-22T10:51:29.996Z,-147.88
2022-08-22T10:54:26.656Z,-147.88
2022-08-22T10:57:07.095Z,-147.88
2022-08-22T10:59:47.915Z,-147.88
2022-08-22T11:02:48.318Z,-147.88
2022-08-22T11:05:32.279Z,-147.88
2022-08-22T11:08:33.111Z,-147.88
2022-08-22T11:11:36.672Z,-147.88
2022-08-22T11:14:25.709Z,-147.88
2022-08-22T11:17:11.955Z,-147.88
2022-08-22T11:20:09.089Z,-147.88
2022-08-22T11:22:47.132Z,-147.88
2022-08-22T11:25:42.036Z,-147.88
2022-08-22T11:28:33.653Z,-147.88
2022-08-22T11:31:17.896Z,-147.88
2022-08-22T11:33:55.714Z,-147.88
2022-08-22T11:36:36.700Z,-147.88
2022-08-22T11:39:18.661Z,-147.88
2022-08-22T11:41:59.520Z,-147.88
2022-08-22T11:44:34.566Z,-147.88
2022-08-22T11:47:26.744Z,-147.88
2022-08-22T11:50:01.210Z,-147.88
2022-08-22T11:52:57.991Z,-147.88
2022-08-22T11:55:39.323Z,-147.88
2022-08-22T11:58:28.985Z,-147.88
2022-08-22T12:01:04.610Z,-147.88
2022-08-22T12:03:55.804Z,-147.88
2022-08-22T12:06:47.239Z,-147.88
2022-08-22T12:09:36.559Z,-147.88
2022-08-22T12:12:33.593Z,-147.88
2022-08-22T12:15:12.536Z,-147.88
2022-08-22T12:18:17.907Z,-147.88
2022-08-22T12:21:14.906Z,-147.88
2022-08-22T12:24:05.886Z,-147.88
2022-08-22T12:26:44.323Z,-147.88
2022-08-22T12:29:33.439Z,-147.88
2022-08-22T12:32:43.839Z,-147.88
2022-08-22T12:35:29.743Z,-147.88
2022-08-22T12:38:28.039Z,-147.88
2022-08-22T12:41:12.832Z,-147.88
2022-08-22T12:43:52.678Z,-147.88
2022-08-22T12:46:33.656Z,-147.88
2022-08-22T12:49:25.533Z,-147.88
2022-08-22T12:52:08.661Z,-147.88
2022-08-22T12:55:05.440Z,-147.88
2022-08-22T12:57:40.803Z,-147.88
2022-08-22T13:00:23.078Z,-147.88
2022-08-22T13:02:55.170Z,-147.88
2022-08-22T13:05:26.257Z,-147.88
2022-08-22T13:07:59.184Z,-147.88
2022-08-22T13:10:38.348Z,-147.88
2022-08-22T13:13:12.086Z,-147.88
2022-08-22T13:15:45.310Z,-147.88
2022-08-22T13:18:29.950Z,-147.88
2022-08-22T13:21:03.995Z,-147.88
2022-08-22T13:23:32.997Z,-147.88
2022-08-22T13:26:11.597Z,-147.88
2022-08-22T13:28:47.022Z,-147.88
2022-08-22T13:31:26.399Z,-147.88
2022-08-22T13:33:59.427Z,-147.88
2022-08-22T13:36:30.330Z,-147.88
2022-08-22T13:39:09.192Z,-147.88
2022-08-22T13:41:46.340Z,-147.88
2022-08-22T13:44:21.188Z,-147.88
2022-08-22T13:47:12.929Z,-147.88
2022-08-22T13:49:41.785Z,-147.88
2022-08-22T13:52:30.036Z,-147.88
2022-08-22T13:55:02.224Z,-147.88
2022-08-22T13:57:34.896Z,-147.88
2022-08-22T14:00:25.378Z,-147.88
2022-08-22T14:03:00.971Z,-147.88
2022-08-22T14:05:36.779Z,-147.88
2022-08-22T14:08:15.319Z,-147.88
2022-08-22T14:11:06.713Z,-147.88
2022-08-22T14:13:43.188Z,-147.88
2022-08-22T14:16:19.880Z,-147.88
2022-08-22T14:18:50.936Z,-147.88
2022-08-22T14:21:29.081Z,-147.88
2022-08-22T14:24:16.050Z,-147.88
2022-08-22T14:26:57.904Z,-147.88
2022-08-22T14:29:31.901Z,-147.88
2022-08-22T14:32:08.815Z,-147.88
2022-08-22T14:34:42.559Z,-147.88
2022-08-22T14:37:21.173Z,-147.88
2022-08-22T14:39:59.119Z,-147.88
2022-08-22T14:42:39.091Z,-147.88
2022-08-22T14:45:17.936Z,-147.88
2022-08-22T14:47:55.302Z,-147.88
2022-08-22T14:50:43.521Z,-147.88
2022-08-22T14:53:25.158Z,-147.88
2022-08-22T14:55:57.452Z,-147.88
2022-08-22T14:58:27.730Z,-147.88
2022-08-22T15:00:57.423Z,-147.88
2022-08-22T15:03:28.572Z,-147.88
2022-08-22T15:05:59.804Z,-147.88
2022-08-22T15:08:33.049Z,-147.88
2022-08-22T15:11:11.210Z,-147.88
2022-08-22T15:13:42.502Z,-147.88
2022-08-22T15:16:21.661Z,-147.88
2022-08-22T15:18:51.806Z,-147.88
2022-08-22T15:21:24.786Z,-147.88
2022-08-22T15:23:56.821Z,-147.88
2022-08-22T15:26:30.648Z,-147.88
2022-08-22T15:29:07.175Z,-147.88
2022-08-22T15:31:35.234Z,-147.88
2022-08-22T15:34:11.440Z,-147.88
2022-08-22T15:37:01.690Z,-147.88
2022-08-22T15:39:57.731Z,-147.88
2022-08-22T15:42:26.164Z,-147.88
2022-08-22T15:44:55.665Z,-147.88
2022-08-22T15:47:32.828Z,-147.88
2022-08-22T15:50:05.682Z,-147.88
2022-08-22T15:52:36.052Z,-147.88
2022-08-22T15:55:24.566Z,-147.88
2022-08-22T15:58:05.401Z,-147.88
2022-08-22T16:00:43.468Z,-147.88
2022-08-22T16:03:24.981Z,-147.88
2022-08-22T16:05:55.877Z,-147.88
2022-08-22T16:08:32.903Z,-147.88
2022-08-22T16:11:32.279Z,-147.88
2022-08-22T16:14:23.981Z,-147.88
2022-08-22T16:17:02.431Z,-147.88
2022-08-22T16:19:31.054Z,-147.88
2022-08-22T16:22:14.746Z,-147.88
2022-08-22T16:25:10.663Z,-147.88
2022-08-22T16:27:52.673Z,-147.88
2022-08-22T16:30:33.918Z,-147.88
2022-08-22T16:33:01.212Z,-147.88
2022-08-22T16:36:05.580Z,-147.88
2022-08-22T16:38:40.693Z,-147.88
2022-08-22T16:41:31.090Z,-147.88
2022-08-22T16:44:42.018Z,-147.88
2022-08-22T16:47:15.928Z,-147.88
2022-08-22T16:50:03.682Z,-147.88
2022-08-22T16:52:53.235Z,-147.88
2022-08-22T16:55:56.248Z,-147.88
2022-08-22T16:58:59.055Z,-147.88
2022-08-22T17:01:45.475Z,-147.88
2022-08-22T17:04:21.956Z,-147.88
2022-08-22T17:07:12.772Z,-147.88
2022-08-22T17:10:17.671Z,-147.88
2022-08-22T17:12:57.340Z,-147.88
2022-08-22T17:15:34.111Z,-147.88
2022-08-22T17:18:20.379Z,-147.88
2022-08-22T17:21:07.187Z,-147.88
2022-08-22T17:23:45.139Z,-147.88
2022-08-22T17:26:20.592Z,-147.88
2022-08-22T17:28:59.688Z,-147.88
2022-08-22T17:31:36.145Z,-147.88
2022-08-22T17:34:18.975Z,-147.88
2022-08-22T17:37:07.681Z,-147.88
2022-08-22T17:39:54.095Z,-147.88
2022-08-22T17:42:38.468Z,-147.88
2022-08-22T17:45:16.535Z,-147.88
2022-08-22T17:47:48.479Z,-147.88
2022-08-22T17:50:27.613Z,-147.88
2022-08-22T17:53:01.378Z,-147.88
2022-08-22T17:55:32.718Z,-147.88
2022-08-22T17:58:07.185Z,-147.88
2022-08-22T18:00:39.359Z,-147.88
2022-08-22T18:03:09.408Z,-147.88
2022-08-22T18:05:46.814Z,-147.88
2022-08-22T18:09:13.394Z,-147.88
2022-08-22T18:11:28.318Z,-147.88
2022-08-22T18:13:59.374Z,-147.88
2022-08-22T18:16:42.596Z,-147.88
2022-08-22T18:19:17.791Z,-147.88
2022-08-22T18:21:51.911Z,-147.88
2022-08-22T18:24:25.018Z,-147.88
2022-08-22T18:26:59.173Z,-147.88
2022-08-22T18:29:39.243Z,-147.88
2022-08-22T18:32:14.535Z,-147.88
2022-08-22T18:34:47.263Z,-147.88
2022-08-22T18:37:23.306Z,-147.88
2022-08-22T18:39:55.358Z,-147.88
2022-08-22T18:42:26.904Z,-147.88
2022-08-22T18:44:54.334Z,-147.88
2022-08-22T18:47:25.138Z,-147.88
2022-08-22T18:49:57.113Z,-147.88
2022-08-22T18:52:39.127Z,-147.88
2022-08-22T18:55:28.252Z,-147.88
2022-08-22T18:58:13.276Z,-147.88
2022-08-22T19:00:58.128Z,-147.88
2022-08-22T19:03:45.473Z,-147.88
2022-08-22T19:06:37.515Z,-147.88
2022-08-22T19:09:53.924Z,-147.88
2022-08-22T19:12:36.354Z,-147.88
2022-08-22T19:15:18.199Z,-147.88
2022-08-22T19:18:21.789Z,-147.88
2022-08-22T19:21:32.551Z,-147.88
2022-08-22T19:24:00.266Z,-147.88
2022-08-22T19:26:35.533Z,-147.88
2022-08-22T19:29:10.755Z,-147.88
2022-08-22T19:31:50.527Z,-147.88
2022-08-22T19:34:38.466Z,-147.88
2022-08-22T19:37:32.371Z,-147.88
2022-08-22T19:40:07.041Z,-147.88
2022-08-22T19:42:39.355Z,-147.88
2022-08-22T19:45:21.054Z,-147.88
2022-08-22T19:47:58.994Z,-147.88
2022-08-22T19:50:33.725Z,-147.88
2022-08-22T19:53:31.538Z,-147.88
2022-08-22T19:56:08.575Z,-147.88
2022-08-22T19:58:50.514Z,-147.88
2022-08-22T20:01:41.306Z,-147.88
2022-08-22T20:04:24.042Z,-147.88
2022-08-22T20:07:01.770Z,-147.88
2022-08-22T20:09:43.956Z,-147.88
2022-08-22T20:12:17.316Z,-147.88
2022-08-22T20:14:47.802Z,-147.88
2022-08-22T20:17:39.340Z,-147.88
2022-08-22T20:20:17.764Z,-147.88
2022-08-22T20:22:49.669Z,-147.88
2022-08-22T20:25:43.516Z,-147.88
2022-08-22T20:28:36.523Z,-147.88
2022-08-22T20:31:09.591Z,-147.88
2022-08-22T20:33:40.311Z,-147.88
2022-08-22T20:36:18.565Z,-147.88
2022-08-22T20:39:00.557Z,-147.88
2022-08-22T20:41:32.802Z,-147.88
2022-08-22T20:44:06.491Z,-147.88
2022-08-22T20:46:46.955Z,-147.88
2022-08-22T20:49:23.866Z,-147.88
2022-08-22T20:51:54.533Z,-147.88
2022-08-22T20:54:24.955Z,-147.88
2022-08-22T20:56:55.589Z,-147.88
2022-08-22T20:59:36.047Z,-147.88
2022-08-22T21:02:19.100Z,-147.88
2022-08-22T21:04:52.921Z,-147.88
2022-08-22T21:07:26.528Z,-147.88
2022-08-22T21:10:16.742Z,-147.88
2022-08-22T21:13:02.422Z,-147.88
2022-08-22T21:15:35.970Z,-147.88
2022-08-22T21:18:04.801Z,-147.88
2022-08-22T21:20:35.423Z,-147.88
2022-08-22T21:23:05.085Z,-147.88
2022-08-22T21:25:33.331Z,-147.88
2022-08-22T21:28:00.897Z,-147.88
2022-08-22T21:30:30.121Z,-147.88
2022-08-22T21:32:57.736Z,-147.88
2022-08-22T21:35:29.390Z,-147.88
2022-08-22T21:37:58.250Z,-147.88
2022-08-22T21:40:32.615Z,-147.88
2022-08-22T21:43:04.662Z,-147.88
2022-08-22T21:45:34.255Z,-147.88
2022-08-22T21:48:02.146Z,-147.88
2022-08-22T21:50:38.123Z,-147.88
2022-08-22T21:53:10.159Z,-147.88
2022-08-22T21:55:42.822Z,-147.88
2022-08-22T21:58:35.736Z,-147.88
2022-08-22T22:01:29.259Z,-147.88
2022-08-22T22:03:57.330Z,-147.88
2022-08-22T22:06:26.532Z,-147.88
2022-08-22T22:08:53.673Z,-147.88
2022-08-22T22:11:20.742Z,-147.88
2022-08-22T22:13:47.979Z,-147.88
2022-08-22T22:16:23.652Z,-147.88
2022-08-22T22:18:50.801Z,-147.88
2022-08-22T22:21:17.749Z,-147.88
2022-08-22T22:23:46.663Z,-147.88
2022-08-22T22:26:14.327Z,-147.88
2022-08-22T22:28:47.404Z,-147.88
2022-08-22T22:31:15.088Z,-147.88
2022-08-22T22:33:42.794Z,-147.88
2022-08-22T22:36:13.355Z,-147.88
2022-08-22T22:38:42.424Z,-147.88
2022-08-22T22:41:11.164Z,-147.88
2022-08-22T22:43:38.246Z,-147.88
2022-08-22T22:46:06.569Z,-147.88
2022-08-22T22:48:33.552Z,-147.88
2022-08-22T22:51:08.164Z,-147.88
2022-08-22T22:53:40.132Z,-147.88
2022-08-22T22:56:11.811Z,-147.88
2022-08-22T22:58:39.091Z,-147.88
2022-08-22T23:01:10.305Z,-147.88
2022-08-22T23:03:37.624Z,-147.88
2022-08-22T23:06:05.366Z,-147.88
2022-08-22T23:08:32.338Z,-147.88
2022-08-22T23:10:59.934Z,-147.88
2022-08-22T23:13:28.340Z,-147.88
2022-08-22T23:15:55.544Z,-147.88
2022-08-22T23:18:30.153Z,-147.88
2022-08-22T23:20:57.479Z,-147.88
2022-08-22T23:23:24.519Z,-147.88
2022-08-22T23:25:51.453Z,-147.88
2022-08-22T23:28:18.357Z,-147.88
2022-08-22T23:30:46.795Z,-147.88
2022-08-22T23:33:14.322Z,-147.88
2022-08-22T23:35:41.354Z,-147.88
2022-08-22T23:38:08.277Z,-147.88
2022-08-22T23:40:35.194Z,-147.88
2022-08-22T23:43:02.201Z,-147.88
2022-08-22T23:45:29.210Z,-147.88
2022-08-22T23:47:57.544Z,-147.88
2022-08-22T23:50:24.489Z,-147.88
2022-08-22T23:52:51.521Z,-147.88
2022-08-22T23:55:19.357Z,-147.88
2022-08-22T23:57:46.275Z,-147.88
